createdAt,value
2018-07-22T00:02:15.679Z,25.30
2018-07-22T00:04:45.269Z,25.40
2018-07-22T00:07:15.452Z,25.40
2018-07-22T00:09:45.047Z,25.40
2018-07-22T00:12:14.553Z,25.50
2018-07-22T00:14:44.331Z,25.40
2018-07-22T00:17:13.914Z,25.40
2018-07-22T00:19:43.771Z,25.40
2018-07-22T00:22:13.236Z,25.30
2018-07-22T00:24:42.761Z,25.30
2018-07-22T00:27:12.348Z,25.30
2018-07-22T00:29:42.061Z,25.30
2018-07-22T00:32:12.097Z,25.30
2018-07-22T00:34:41.656Z,25.30
2018-07-22T00:37:11.217Z,25.20
2018-07-22T00:39:40.798Z,25.20
2018-07-22T00:42:10.422Z,25.20
2018-07-22T00:44:40.025Z,25.20
2018-07-22T00:47:09.604Z,25.20
2018-07-22T00:49:39.096Z,25.10
2018-07-22T00:52:08.961Z,25.00
2018-07-22T00:54:38.908Z,24.90
2018-07-22T00:57:08.647Z,24.80
2018-07-22T00:59:39.541Z,24.70
2018-07-22T01:02:09.525Z,24.60
2018-07-22T01:04:39.378Z,24.60
2018-07-22T01:07:11.723Z,24.50
2018-07-22T01:09:41.266Z,24.50
2018-07-22T01:12:10.963Z,24.50
2018-07-22T01:14:40.546Z,24.40
2018-07-22T01:17:10.448Z,24.40
2018-07-22T01:19:39.935Z,24.40
2018-07-22T01:22:09.764Z,24.40
2018-07-22T01:24:39.251Z,24.40
2018-07-22T01:27:08.794Z,24.40
2018-07-22T01:29:38.384Z,24.40
2018-07-22T01:32:07.988Z,24.40
2018-07-22T01:34:37.956Z,24.30
2018-07-22T01:37:07.064Z,24.10
2018-07-22T01:39:36.587Z,24.10
2018-07-22T01:42:06.220Z,24.00
2018-07-22T01:44:35.983Z,23.90
2018-07-22T01:47:05.969Z,23.80
2018-07-22T01:49:35.672Z,23.80
2018-07-22T01:52:05.683Z,23.90
2018-07-22T01:54:35.165Z,23.90
2018-07-22T01:57:04.683Z,23.90
2018-07-22T01:59:34.189Z,23.80
2018-07-22T02:02:03.784Z,23.80
2018-07-22T02:04:34.127Z,23.80
2018-07-22T02:07:03.543Z,23.70
2018-07-22T02:09:33.644Z,23.60
2018-07-22T02:12:03.419Z,23.60
2018-07-22T02:14:32.688Z,23.50
2018-07-22T02:17:02.158Z,23.50
2018-07-22T02:19:31.507Z,23.50
2018-07-22T02:22:00.961Z,23.50
2018-07-22T02:24:30.487Z,23.50
2018-07-22T02:27:00.172Z,23.50
2018-07-22T02:29:29.609Z,23.50
2018-07-22T02:31:59.286Z,23.40
2018-07-22T02:34:28.993Z,23.40
2018-07-22T02:36:58.847Z,23.30
2018-07-22T02:39:28.505Z,23.30
2018-07-22T02:41:57.827Z,23.20
2018-07-22T02:44:27.209Z,23.10
2018-07-22T02:46:56.899Z,23.10
2018-07-22T02:49:26.421Z,23.00
2018-07-22T02:51:57.332Z,22.80
2018-07-22T02:54:29.660Z,22.80
2018-07-22T02:57:00.294Z,22.80
2018-07-22T02:59:30.799Z,22.70
2018-07-22T03:02:00.133Z,22.70
2018-07-22T03:04:29.678Z,22.70
2018-07-22T03:06:59.550Z,22.60
2018-07-22T03:09:29.246Z,22.60
2018-07-22T03:11:59.758Z,22.60
2018-07-22T03:14:29.409Z,22.50
2018-07-22T03:16:59.244Z,22.50
2018-07-22T03:19:28.914Z,22.50
2018-07-22T03:21:58.715Z,22.40
2018-07-22T03:24:28.305Z,22.30
2018-07-22T03:26:57.940Z,22.20
2018-07-22T03:29:27.596Z,22.20
2018-07-22T03:31:58.634Z,22.10
2018-07-22T03:34:29.286Z,22.00
2018-07-22T03:36:58.905Z,22.00
2018-07-22T03:39:30.121Z,21.90
2018-07-22T03:42:01.177Z,21.80
2018-07-22T03:44:33.350Z,21.80
2018-07-22T03:47:04.236Z,21.70
2018-07-22T03:49:34.080Z,21.70
2018-07-22T03:52:03.816Z,21.70
2018-07-22T03:54:33.539Z,21.60
2018-07-22T03:57:03.130Z,21.60
2018-07-22T03:59:32.981Z,21.50
2018-07-22T04:02:03.708Z,21.40
2018-07-22T04:04:33.765Z,21.40
2018-07-22T04:07:04.484Z,21.30
2018-07-22T04:09:33.936Z,21.30
2018-07-22T04:12:04.438Z,21.20
2018-07-22T04:14:36.449Z,21.10
2018-07-22T04:17:05.887Z,21.10
2018-07-22T04:19:35.505Z,21.10
2018-07-22T04:22:05.064Z,21.00
2018-07-22T04:24:35.461Z,20.90
2018-07-22T04:27:05.005Z,20.90
2018-07-22T04:29:34.680Z,20.80
2018-07-22T04:32:04.806Z,20.70
2018-07-22T04:34:35.066Z,20.60
2018-07-22T04:37:04.756Z,20.60
2018-07-22T04:39:34.876Z,20.60
2018-07-22T04:42:05.027Z,20.50
2018-07-22T04:44:34.968Z,20.40
2018-07-22T04:47:04.462Z,20.30
2018-07-22T04:49:34.028Z,20.30
2018-07-22T04:52:04.349Z,20.30
2018-07-22T04:54:33.684Z,20.20
2018-07-22T04:57:03.045Z,20.20
2018-07-22T04:59:32.924Z,20.10
2018-07-22T05:02:03.616Z,20.10
2018-07-22T05:04:33.037Z,20.10
2018-07-22T05:07:03.295Z,20.10
2018-07-22T05:09:33.410Z,20.00
2018-07-22T05:12:03.748Z,20.00
2018-07-22T05:14:33.765Z,19.90
2018-07-22T05:17:04.057Z,19.90
2018-07-22T05:19:33.746Z,19.90
2018-07-22T05:22:03.274Z,19.90
2018-07-22T05:24:32.951Z,19.80
2018-07-22T05:27:02.658Z,19.80
2018-07-22T05:29:32.277Z,19.70
2018-07-22T05:32:02.030Z,19.70
2018-07-22T05:34:31.743Z,19.60
2018-07-22T05:37:04.858Z,19.50
2018-07-22T05:39:34.738Z,19.50
2018-07-22T05:42:04.930Z,19.50
2018-07-22T05:44:34.732Z,19.50
2018-07-22T05:47:04.476Z,19.40
2018-07-22T05:49:34.596Z,19.40
2018-07-22T05:52:04.103Z,19.30
2018-07-22T05:54:34.866Z,19.30
2018-07-22T05:57:04.401Z,19.30
2018-07-22T05:59:35.284Z,19.30
2018-07-22T06:02:05.245Z,19.30
2018-07-22T06:04:35.012Z,19.30
2018-07-22T06:07:05.502Z,19.30
2018-07-22T06:09:34.484Z,19.30
2018-07-22T06:12:04.278Z,19.30
2018-07-22T06:14:34.352Z,19.20
2018-07-22T06:17:03.660Z,19.20
2018-07-22T06:19:34.216Z,19.20
2018-07-22T06:22:03.492Z,19.10
2018-07-22T06:24:34.013Z,19.10
2018-07-22T06:27:04.298Z,19.00
2018-07-22T06:29:33.780Z,19.00
2018-07-22T06:32:03.520Z,18.90
2018-07-22T06:34:35.104Z,18.90
2018-07-22T06:37:04.754Z,18.90
2018-07-22T06:39:34.513Z,18.80
2018-07-22T06:42:04.570Z,18.90
2018-07-22T06:44:35.057Z,18.90
2018-07-22T06:47:04.697Z,18.90
2018-07-22T06:49:34.296Z,18.80
2018-07-22T06:52:03.847Z,18.90
2018-07-22T06:54:33.441Z,18.90
2018-07-22T06:57:04.332Z,18.90
2018-07-22T06:59:33.894Z,18.80
2018-07-22T07:02:03.485Z,18.80
2018-07-22T07:04:33.499Z,18.80
2018-07-22T07:07:02.946Z,18.80
2018-07-22T07:09:32.366Z,18.70
2018-07-22T07:12:01.956Z,18.70
2018-07-22T07:14:31.878Z,18.70
2018-07-22T07:17:01.536Z,18.60
2018-07-22T07:19:32.218Z,18.60
2018-07-22T07:22:02.017Z,18.50
2018-07-22T07:24:31.693Z,18.50
2018-07-22T07:27:01.243Z,18.50
2018-07-22T07:29:30.491Z,18.40
2018-07-22T07:32:02.014Z,18.40
2018-07-22T07:34:31.439Z,18.40
2018-07-22T07:37:01.265Z,18.40
2018-07-22T07:39:30.894Z,18.40
2018-07-22T07:42:00.704Z,18.30
2018-07-22T07:44:32.115Z,18.20
2018-07-22T07:47:01.725Z,18.20
2018-07-22T07:49:31.468Z,18.20
2018-07-22T07:52:01.045Z,18.20
2018-07-22T07:54:32.533Z,18.20
2018-07-22T07:57:02.231Z,18.20
2018-07-22T07:59:32.741Z,18.20
2018-07-22T08:02:03.753Z,18.10
2018-07-22T08:04:33.652Z,18.20
2018-07-22T08:07:03.191Z,18.20
2018-07-22T08:09:32.575Z,18.20
2018-07-22T08:12:02.109Z,18.10
2018-07-22T08:14:31.687Z,18.10
2018-07-22T08:17:01.220Z,18.00
2018-07-22T08:19:30.842Z,17.90
2018-07-22T08:22:00.468Z,17.80
2018-07-22T08:24:30.016Z,17.90
2018-07-22T08:26:59.834Z,17.90
2018-07-22T08:29:29.240Z,17.90
2018-07-22T08:31:58.794Z,17.90
2018-07-22T08:34:28.233Z,17.80
2018-07-22T08:36:57.891Z,17.90
2018-07-22T08:39:27.860Z,17.90
2018-07-22T08:41:58.619Z,17.80
2018-07-22T08:44:28.237Z,17.80
2018-07-22T08:46:58.431Z,17.80
2018-07-22T08:49:27.865Z,17.80
2018-07-22T08:51:57.332Z,17.80
2018-07-22T08:54:26.873Z,17.70
2018-07-22T08:56:56.677Z,17.70
2018-07-22T08:59:26.863Z,17.70
2018-07-22T09:01:56.588Z,17.60
2018-07-22T09:04:26.607Z,17.70
2018-07-22T09:06:56.294Z,17.60
2018-07-22T09:09:25.788Z,17.60
2018-07-22T09:11:55.469Z,17.60
2018-07-22T09:14:24.760Z,17.60
2018-07-22T09:16:54.420Z,17.60
2018-07-22T09:19:24.350Z,17.70
2018-07-22T09:21:53.797Z,17.60
2018-07-22T09:24:24.067Z,17.60
2018-07-22T09:26:53.857Z,17.60
2018-07-22T09:29:23.311Z,17.60
2018-07-22T09:31:53.373Z,17.60
2018-07-22T09:34:23.449Z,17.60
2018-07-22T09:36:53.069Z,17.50
2018-07-22T09:39:22.660Z,17.50
2018-07-22T09:41:52.232Z,17.50
2018-07-22T09:44:21.587Z,17.50
2018-07-22T09:46:51.513Z,17.50
2018-07-22T09:49:22.002Z,17.50
2018-07-22T09:51:51.591Z,17.50
2018-07-22T09:54:21.223Z,17.40
2018-07-22T09:56:50.820Z,17.40
2018-07-22T09:59:20.488Z,17.40
2018-07-22T10:01:51.122Z,17.30
2018-07-22T10:04:20.668Z,17.30
2018-07-22T10:06:50.357Z,17.20
2018-07-22T10:09:19.781Z,17.10
2018-07-22T10:11:49.310Z,17.10
2018-07-22T10:14:18.817Z,17.00
2018-07-22T10:16:48.485Z,17.00
2018-07-22T10:19:18.364Z,17.00
2018-07-22T10:21:47.945Z,17.10
2018-07-22T10:24:19.067Z,17.10
2018-07-22T10:26:48.760Z,17.10
2018-07-22T10:29:18.461Z,17.10
2018-07-22T10:31:48.197Z,17.10
2018-07-22T10:34:17.913Z,17.10
2018-07-22T10:36:47.636Z,17.00
2018-07-22T10:39:17.051Z,17.00
2018-07-22T10:41:46.525Z,17.00
2018-07-22T10:44:16.685Z,17.00
2018-07-22T10:46:46.338Z,16.90
2018-07-22T10:49:15.920Z,16.90
2018-07-22T10:51:45.466Z,16.90
2018-07-22T10:54:16.302Z,16.90
2018-07-22T10:56:46.880Z,16.90
2018-07-22T10:59:16.942Z,16.90
2018-07-22T11:01:47.397Z,16.90
2018-07-22T11:04:17.964Z,16.90
2018-07-22T11:06:47.736Z,16.80
2018-07-22T11:09:17.303Z,16.80
2018-07-22T11:11:49.251Z,16.80
2018-07-22T11:14:18.916Z,16.80
2018-07-22T11:16:48.482Z,16.90
2018-07-22T11:19:17.868Z,16.90
2018-07-22T11:21:47.617Z,16.80
2018-07-22T11:24:17.394Z,16.80
2018-07-22T11:26:46.673Z,16.80
2018-07-22T11:29:16.267Z,16.80
2018-07-22T11:31:45.810Z,16.70
2018-07-22T11:34:15.598Z,16.70
2018-07-22T11:36:46.112Z,16.70
2018-07-22T11:39:15.876Z,16.70
2018-07-22T11:41:46.276Z,16.60
2018-07-22T11:44:16.797Z,16.60
2018-07-22T11:46:46.532Z,16.60
2018-07-22T11:49:16.138Z,16.60
2018-07-22T11:51:46.118Z,16.60
2018-07-22T11:54:15.549Z,16.60
2018-07-22T11:56:45.201Z,16.60
2018-07-22T11:59:15.875Z,16.60
2018-07-22T12:01:46.301Z,16.60
2018-07-22T12:04:16.035Z,16.60
2018-07-22T12:06:46.507Z,16.60
2018-07-22T12:09:17.060Z,16.50
2018-07-22T12:11:46.354Z,16.50
2018-07-22T12:14:15.801Z,16.50
2018-07-22T12:16:45.993Z,16.50
2018-07-22T12:19:16.192Z,16.50
2018-07-22T12:21:45.628Z,16.40
2018-07-22T12:24:15.255Z,16.50
2018-07-22T12:26:44.637Z,16.50
2018-07-22T12:29:15.108Z,16.40
2018-07-22T12:31:45.380Z,16.40
2018-07-22T12:34:15.637Z,16.40
2018-07-22T12:36:45.616Z,16.40
2018-07-22T12:39:14.942Z,16.40
2018-07-22T12:41:46.168Z,16.40
2018-07-22T12:44:15.960Z,16.40
2018-07-22T12:46:46.744Z,16.30
2018-07-22T12:49:17.062Z,16.30
2018-07-22T12:51:47.401Z,16.20
2018-07-22T12:54:16.898Z,16.20
2018-07-22T12:56:46.410Z,16.10
2018-07-22T12:59:16.064Z,16.10
2018-07-22T13:01:47.051Z,16.10
2018-07-22T13:04:16.978Z,16.10
2018-07-22T13:06:46.670Z,16.10
2018-07-22T13:09:16.017Z,16.10
2018-07-22T13:11:45.943Z,16.20
2018-07-22T13:14:15.711Z,16.20
2018-07-22T13:16:45.364Z,16.20
2018-07-22T13:19:14.520Z,16.10
2018-07-22T13:21:44.005Z,16.20
2018-07-22T13:24:13.517Z,16.10
2018-07-22T13:26:42.885Z,16.10
2018-07-22T13:29:12.150Z,16.20
2018-07-22T13:31:42.680Z,16.20
2018-07-22T13:34:14.119Z,16.10
2018-07-22T13:36:44.393Z,16.10
2018-07-22T13:39:13.967Z,16.10
2018-07-22T13:41:44.436Z,16.10
2018-07-22T13:44:13.899Z,16.20
2018-07-22T13:46:43.316Z,16.20
2018-07-22T13:49:12.933Z,16.30
2018-07-22T13:51:42.700Z,16.40
2018-07-22T13:54:12.727Z,16.50
2018-07-22T13:56:42.355Z,16.50
2018-07-22T13:59:11.972Z,16.60
2018-07-22T14:01:41.572Z,16.70
2018-07-22T14:04:11.141Z,16.80
2018-07-22T14:06:40.840Z,16.90
2018-07-22T14:09:11.232Z,16.90
2018-07-22T14:11:41.927Z,17.00
2018-07-22T14:14:12.191Z,17.20
2018-07-22T14:16:41.662Z,17.20
2018-07-22T14:19:11.322Z,17.30
2018-07-22T14:21:41.038Z,17.30
2018-07-22T14:24:10.664Z,17.30
2018-07-22T14:26:40.000Z,17.40
2018-07-22T14:29:09.728Z,17.50
2018-07-22T14:31:39.402Z,17.60
2018-07-22T14:34:10.126Z,17.80
2018-07-22T14:36:39.786Z,17.90
2018-07-22T14:39:09.410Z,18.00
2018-07-22T14:41:38.886Z,18.10
2018-07-22T14:44:08.492Z,18.20
2018-07-22T14:46:38.193Z,18.30
2018-07-22T14:49:07.848Z,18.40
2018-07-22T14:51:37.253Z,18.60
2018-07-22T14:54:06.578Z,18.70
2018-07-22T14:56:36.082Z,18.70
2018-07-22T14:59:05.671Z,18.80
2018-07-22T15:01:35.220Z,18.90
2018-07-22T15:04:04.522Z,19.10
2018-07-22T15:06:33.985Z,19.10
2018-07-22T15:09:03.781Z,19.30
2018-07-22T15:11:33.800Z,19.40
2018-07-22T15:14:03.643Z,19.60
2018-07-22T15:16:32.700Z,19.80
2018-07-22T15:19:02.168Z,19.90
2018-07-22T15:21:32.510Z,20.10
2018-07-22T15:24:02.282Z,20.10
2018-07-22T15:26:31.859Z,20.20
2018-07-22T15:29:26.120Z,20.40
2018-07-22T15:31:58.489Z,20.60
2018-07-22T15:34:29.366Z,20.70
2018-07-22T15:36:58.995Z,20.80
2018-07-22T15:39:28.471Z,21.00
2018-07-22T15:41:58.850Z,21.10
2018-07-22T15:44:28.193Z,21.30
2018-07-22T15:46:57.453Z,21.50
2018-07-22T15:49:26.997Z,21.60
2018-07-22T15:51:56.565Z,21.70
2018-07-22T15:54:25.981Z,21.90
2018-07-22T15:56:55.324Z,21.90
2018-07-22T15:59:25.136Z,22.00
2018-07-22T16:01:54.677Z,22.20
2018-07-22T16:04:24.216Z,22.30
2018-07-22T16:06:53.902Z,22.30
2018-07-22T16:09:23.410Z,22.40
2018-07-22T16:11:53.308Z,22.60
2018-07-22T16:14:22.764Z,22.70
2018-07-22T16:16:52.670Z,22.90
2018-07-22T16:19:22.356Z,23.00
2018-07-22T16:21:52.473Z,23.20
2018-07-22T16:24:21.960Z,23.20
2018-07-22T16:26:51.564Z,23.30
2018-07-22T16:29:21.086Z,23.40
2018-07-22T16:31:50.366Z,23.50
2018-07-22T16:34:20.924Z,23.50
2018-07-22T16:36:50.705Z,23.50
2018-07-22T16:39:20.703Z,23.60
2018-07-22T16:41:50.145Z,23.70
2018-07-22T16:44:19.777Z,23.70
2018-07-22T16:46:49.409Z,23.80
2018-07-22T16:49:18.856Z,23.90
2018-07-22T16:51:49.002Z,24.10
2018-07-22T16:54:18.571Z,24.00
2018-07-22T16:56:48.098Z,24.00
2018-07-22T16:59:17.830Z,24.10
2018-07-22T17:01:47.374Z,24.40
2018-07-22T17:04:16.828Z,24.50
2018-07-22T17:06:46.357Z,24.60
2018-07-22T17:09:15.943Z,24.80
2018-07-22T17:11:45.665Z,24.90
2018-07-22T17:14:15.325Z,25.20
2018-07-22T17:16:44.752Z,25.40
2018-07-22T17:19:14.252Z,25.40
2018-07-22T17:21:43.663Z,25.80
2018-07-22T17:24:13.269Z,26.60
2018-07-22T17:26:42.655Z,27.90
2018-07-22T17:29:12.797Z,29.10
2018-07-22T17:31:42.309Z,29.00
2018-07-22T17:34:11.798Z,33.90
2018-07-22T17:36:42.112Z,42.00
2018-07-22T17:39:11.735Z,41.80
2018-07-22T17:41:41.423Z,44.00
2018-07-22T17:44:10.941Z,45.90
2018-07-22T17:46:42.976Z,46.30
2018-07-22T17:49:12.822Z,47.10
2018-07-22T17:51:44.199Z,49.40
2018-07-22T17:54:13.877Z,49.30
2018-07-22T17:56:44.233Z,51.60
2018-07-22T17:59:13.518Z,51.50
2018-07-22T18:01:43.000Z,52.40
2018-07-22T18:04:13.391Z,54.30
2018-07-22T18:06:43.661Z,54.20
2018-07-22T18:09:13.259Z,54.90
2018-07-22T18:11:42.927Z,54.90
2018-07-22T18:14:12.515Z,54.80
2018-07-22T18:16:43.263Z,54.80
2018-07-22T18:19:12.838Z,54.70
2018-07-22T18:21:42.139Z,54.60
2018-07-22T18:24:11.413Z,55.30
2018-07-22T18:26:41.614Z,55.30
2018-07-22T18:29:11.162Z,55.80
2018-07-22T18:31:41.264Z,56.10
2018-07-22T18:34:10.844Z,56.40
2018-07-22T18:36:40.774Z,56.90
2018-07-22T18:39:10.327Z,55.90
2018-07-22T18:41:39.756Z,55.30
2018-07-22T18:44:09.217Z,55.40
2018-07-22T18:46:38.798Z,55.20
2018-07-22T18:49:08.314Z,54.60
2018-07-22T18:51:38.523Z,50.20
2018-07-22T18:54:08.004Z,50.10
2018-07-22T18:56:37.672Z,46.70
2018-07-22T18:59:07.160Z,43.70
2018-07-22T19:01:37.685Z,42.10
2018-07-22T19:04:07.389Z,40.70
2018-07-22T19:06:37.365Z,39.90
2018-07-22T19:09:06.969Z,39.00
2018-07-22T19:11:36.397Z,38.10
2018-07-22T19:14:07.109Z,37.80
2018-07-22T19:16:37.255Z,37.70
2018-07-22T19:19:07.019Z,37.80
2018-07-22T19:21:36.531Z,37.50
2018-07-22T19:24:05.932Z,37.20
2018-07-22T19:26:36.397Z,36.90
2018-07-22T19:29:06.080Z,36.80
2018-07-22T19:31:35.612Z,36.70
2018-07-22T19:34:04.920Z,36.70
2018-07-22T19:36:35.279Z,36.80
2018-07-22T19:39:06.153Z,36.60
2018-07-22T19:41:35.754Z,36.20
2018-07-22T19:44:06.100Z,36.10
2018-07-22T19:46:35.755Z,36.00
2018-07-22T19:49:05.244Z,36.10
2018-07-22T19:51:35.428Z,36.30
2018-07-22T19:54:04.928Z,36.30
2018-07-22T19:56:34.361Z,36.00
2018-07-22T19:59:04.017Z,35.90
2018-07-22T20:01:33.791Z,36.10
2018-07-22T20:04:03.636Z,36.00
2018-07-22T20:06:32.896Z,35.90
2018-07-22T20:09:04.176Z,35.10
2018-07-22T20:11:33.757Z,35.00
2018-07-22T20:14:03.630Z,34.90
2018-07-22T20:16:32.882Z,34.90
2018-07-22T20:19:02.392Z,34.90
2018-07-22T20:21:32.139Z,34.60
2018-07-22T20:24:01.960Z,34.40
2018-07-22T20:26:31.767Z,34.10
2018-07-22T20:29:01.381Z,33.80
2018-07-22T20:31:30.959Z,33.50
2018-07-22T20:34:00.701Z,33.30
2018-07-22T20:36:30.242Z,33.10
2018-07-22T20:39:00.062Z,32.90
2018-07-22T20:41:29.841Z,32.60
2018-07-22T20:43:59.366Z,32.20
2018-07-22T20:46:29.908Z,32.10
2018-07-22T20:48:59.387Z,32.10
2018-07-22T20:51:30.020Z,31.70
2018-07-22T20:53:59.916Z,31.60
2018-07-22T20:56:29.644Z,31.40
2018-07-22T20:58:59.138Z,31.10
2018-07-22T21:01:30.405Z,30.90
2018-07-22T21:04:01.404Z,30.90
2018-07-22T21:06:31.146Z,30.90
2018-07-22T21:09:00.550Z,31.00
2018-07-22T21:11:30.264Z,30.90
2018-07-22T21:13:59.841Z,30.80
2018-07-22T21:16:30.374Z,30.70
2018-07-22T21:18:59.609Z,30.60
2018-07-22T21:21:29.276Z,30.60
2018-07-22T21:23:58.959Z,30.60
2018-07-22T21:26:29.775Z,30.40
2018-07-22T21:28:59.710Z,30.30
2018-07-22T21:31:29.769Z,30.40
2018-07-22T21:33:59.640Z,30.30
2018-07-22T21:36:30.500Z,30.20
2018-07-22T21:39:00.405Z,30.10
2018-07-22T21:41:29.788Z,30.00
2018-07-22T21:43:59.591Z,30.00
2018-07-22T21:46:29.083Z,30.00
2018-07-22T21:48:58.671Z,30.00
2018-07-22T21:51:28.357Z,29.90
2018-07-22T21:53:58.224Z,29.90
2018-07-22T21:56:27.717Z,29.90
2018-07-22T21:58:57.478Z,30.00
2018-07-22T22:01:27.223Z,30.10
2018-07-22T22:03:57.527Z,30.00
2018-07-22T22:06:26.917Z,30.00
2018-07-22T22:08:56.383Z,30.10
2018-07-22T22:11:26.212Z,30.10
2018-07-22T22:13:55.469Z,30.10
2018-07-22T22:16:25.649Z,30.20
2018-07-22T22:18:55.852Z,30.10
2018-07-22T22:21:25.234Z,30.10
2018-07-22T22:23:55.499Z,30.10
2018-07-22T22:26:25.121Z,30.10
2018-07-22T22:28:55.819Z,30.00
2018-07-22T22:31:25.613Z,30.00
2018-07-22T22:33:55.912Z,30.00
2018-07-22T22:36:25.440Z,29.90
2018-07-22T22:38:55.176Z,29.90
2018-07-22T22:41:24.724Z,30.10
2018-07-22T22:43:54.169Z,30.00
2018-07-22T22:46:23.608Z,30.10
2018-07-22T22:48:53.245Z,30.00
2018-07-22T22:51:23.825Z,30.00
2018-07-22T22:53:53.273Z,30.00
2018-07-22T22:56:24.519Z,30.10
2018-07-22T23:01:55.079Z,30.10
2018-07-22T23:04:24.777Z,30.00
2018-07-22T23:06:54.413Z,30.00
2018-07-22T23:09:23.876Z,29.90
2018-07-22T23:11:53.625Z,30.00
2018-07-22T23:14:24.116Z,30.00
2018-07-22T23:16:53.760Z,30.00
2018-07-22T23:19:25.038Z,30.10
2018-07-22T23:21:54.732Z,30.10
2018-07-22T23:24:24.425Z,30.00
2018-07-22T23:26:55.793Z,29.90
2018-07-22T23:29:25.348Z,29.90
2018-07-22T23:31:55.131Z,29.90
2018-07-22T23:34:25.202Z,29.90
2018-07-22T23:36:56.713Z,29.70
2018-07-22T23:39:27.208Z,29.70
2018-07-22T23:41:56.779Z,29.70
2018-07-22T23:44:26.463Z,29.70
2018-07-22T23:46:56.459Z,29.70
2018-07-22T23:49:26.420Z,29.60
2018-07-22T23:51:55.964Z,29.60
2018-07-22T23:54:25.364Z,29.60
2018-07-22T23:56:55.255Z,29.60
2018-07-22T23:59:25.232Z,29.60
